Whyalla, Australia
Current Conditions -  °F | °C
As of 1:00 AM on Friday 24 Oct 2014 (Local Time) from YWHA Reporting Station
Clear Clear  
Wind Chill: 59°   Ceiling: Unl
Heat Index: 59°   Visibility: 6mi
Dew Point: 54°   Wind: 3mph
Humidity: 82%   Direction: 260°W
Pressure: 29.94"   Gusts: NA
Location:  33.03°S, 137.59°E
Report Text: YWHA 231500Z AUTO 26003KT 9999 // NCD 15/12 Q1014
Loading
Personal Weather Stations






























Interactive Weather Map
Tropical Storm Tracking
New forecast layout! Learn more

10-Day Weather Forecast

Advertisements
Track Severe Weather on mobile